createdAt,value
2024-03-13T00:00:54.997Z,27.27
2024-03-13T00:01:59.021Z,27.33
2024-03-13T00:03:01.477Z,27.47
2024-03-13T00:04:06.476Z,27.50
2024-03-13T00:05:11.122Z,26.70
2024-03-13T00:06:14.919Z,27.85
2024-03-13T00:07:18.805Z,27.82
2024-03-13T00:08:24.102Z,26.20
2024-03-13T00:09:27.089Z,26.20
2024-03-13T00:10:31.360Z,27.33
2024-03-13T00:11:34.499Z,27.12
2024-03-13T00:12:38.535Z,27.78
2024-03-13T00:13:41.429Z,27.38
2024-03-13T00:14:51.040Z,25.90
2024-03-13T00:15:53.630Z,26.15
2024-03-13T00:16:57.165Z,27.68
2024-03-13T00:18:00.311Z,27.12
2024-03-13T00:19:04.949Z,25.82
2024-03-13T00:20:12.591Z,26.25
2024-03-13T00:21:16.073Z,27.27
2024-03-13T00:22:20.550Z,27.75
2024-03-13T00:23:24.286Z,27.20
2024-03-13T00:24:27.840Z,26.05
2024-03-13T00:25:31.789Z,25.48
2024-03-13T00:26:35.147Z,25.50
2024-03-13T00:27:38.491Z,25.87
2024-03-13T00:28:42.117Z,25.77
2024-03-13T00:29:46.309Z,26.38
2024-03-13T00:30:50.119Z,26.08
2024-03-13T00:31:53.378Z,24.98
2024-03-13T00:32:57.121Z,26.47
2024-03-13T00:34:00.455Z,27.33
2024-03-13T00:35:05.274Z,28.02
2024-03-13T00:36:09.819Z,25.27
2024-03-13T00:37:14.310Z,25.37
2024-03-13T00:38:18.383Z,25.07
2024-03-13T00:39:23.441Z,26.20
2024-03-13T00:40:26.396Z,24.55
2024-03-13T00:41:30.362Z,24.52
2024-03-13T00:42:33.230Z,23.87
2024-03-13T00:43:36.785Z,24.57
2024-03-13T00:44:40.482Z,24.03
2024-03-13T00:45:44.084Z,25.55
2024-03-13T00:46:47.964Z,25.58
2024-03-13T00:47:51.801Z,25.42
2024-03-13T00:48:55.646Z,26.37
2024-03-13T00:50:00.400Z,25.28
2024-03-13T00:51:02.967Z,25.25
2024-03-13T00:52:08.418Z,24.90
2024-03-13T00:53:11.342Z,24.18
2024-03-13T00:54:16.187Z,26.63
2024-03-13T00:55:19.049Z,26.67
2024-03-13T00:56:22.967Z,24.62
2024-03-13T00:57:25.834Z,25.87
2024-03-13T00:58:30.042Z,25.87
2024-03-13T00:59:33.521Z,25.58
2024-03-13T01:00:38.398Z,25.20
2024-03-13T01:01:41.990Z,25.05
2024-03-13T01:02:46.500Z,24.57
2024-03-13T01:03:49.729Z,25.03
2024-03-13T01:04:56.161Z,25.13
2024-03-13T01:05:58.996Z,26.33
2024-03-13T01:07:02.643Z,24.58
2024-03-13T01:08:05.701Z,25.03
2024-03-13T01:09:11.062Z,24.70
2024-03-13T01:10:15.359Z,25.33
2024-03-13T01:11:18.812Z,27.12
2024-03-13T01:12:22.011Z,24.93
2024-03-13T01:13:26.256Z,25.80
2024-03-13T01:14:29.430Z,25.57
2024-03-13T01:15:33.788Z,25.15
2024-03-13T01:16:37.389Z,24.08
2024-03-13T01:17:41.716Z,23.78
2024-03-13T01:18:44.877Z,24.42
2024-03-13T01:19:48.342Z,23.65
2024-03-13T01:20:52.101Z,25.22
2024-03-13T01:21:56.628Z,25.85
2024-03-13T01:23:00.527Z,24.37
2024-03-13T01:24:03.459Z,24.25
2024-03-13T01:25:07.307Z,24.23
2024-03-13T01:26:11.750Z,25.52
2024-03-13T01:27:15.632Z,25.18
2024-03-13T01:28:18.098Z,26.10
2024-03-13T01:29:22.463Z,25.97
2024-03-13T01:30:25.311Z,27.65
2024-03-13T01:31:29.159Z,25.32
2024-03-13T01:32:34.964Z,24.02
2024-03-13T01:33:39.671Z,24.80
2024-03-13T01:34:42.105Z,25.45
2024-03-13T01:35:45.874Z,25.53
2024-03-13T01:37:07.354Z,25.22
2024-03-13T01:38:09.962Z,24.68
2024-03-13T01:39:13.900Z,25.38
2024-03-13T01:40:20.899Z,24.15
2024-03-13T01:41:53.125Z,24.43
2024-03-13T01:43:14.619Z,24.58
2024-03-13T01:44:36.051Z,24.35
2024-03-13T01:46:51.321Z,25.07
2024-03-13T01:48:14.889Z,25.37
2024-03-13T01:49:40.010Z,23.83
2024-03-13T01:51:03.370Z,26.33
2024-03-13T01:52:29.312Z,26.13
2024-03-13T01:53:53.517Z,24.45
2024-03-13T01:55:11.886Z,24.33
2024-03-13T01:56:23.109Z,26.00
2024-03-13T01:57:33.296Z,24.65
2024-03-13T01:58:42.105Z,25.63
2024-03-13T01:59:50.761Z,22.77
2024-03-13T02:01:11.940Z,23.08
2024-03-13T02:02:25.573Z,24.12
2024-03-13T02:03:29.699Z,24.07
2024-03-13T02:04:32.166Z,23.68
2024-03-13T02:05:35.219Z,22.28
2024-03-13T02:06:39.363Z,24.00
2024-03-13T02:07:43.099Z,24.03
2024-03-13T02:08:49.528Z,24.25
2024-03-13T02:09:52.926Z,24.13
2024-03-13T02:10:59.349Z,24.33
2024-03-13T02:12:01.920Z,23.62
2024-03-13T02:13:07.737Z,24.58
2024-03-13T02:14:11.729Z,24.28
2024-03-13T02:15:14.712Z,26.03
2024-03-13T02:16:18.523Z,26.92
2024-03-13T02:17:21.360Z,25.12
2024-03-13T02:18:29.453Z,22.25
2024-03-13T02:19:33.666Z,23.13
2024-03-13T02:20:38.829Z,23.47
2024-03-13T02:21:42.224Z,23.43
2024-03-13T02:22:46.427Z,23.15
2024-03-13T02:23:49.266Z,23.17
2024-03-13T02:24:53.804Z,23.73
2024-03-13T02:25:56.960Z,22.95
2024-03-13T02:27:01.551Z,23.37
2024-03-13T02:28:04.551Z,25.02
2024-03-13T02:29:10.365Z,24.10
2024-03-13T02:30:13.551Z,24.55
2024-03-13T02:31:16.586Z,22.93
2024-03-13T02:32:21.833Z,23.67
2024-03-13T02:33:25.333Z,25.30
2024-03-13T02:34:31.430Z,24.37
2024-03-13T02:35:34.327Z,24.28
2024-03-13T02:36:38.311Z,23.88
2024-03-13T02:37:41.639Z,23.82
2024-03-13T02:38:46.442Z,23.93
2024-03-13T02:39:49.241Z,22.75
2024-03-13T02:40:55.205Z,23.02
2024-03-13T02:41:58.617Z,23.10
2024-03-13T02:43:02.653Z,23.78
2024-03-13T02:44:07.540Z,24.35
2024-03-13T02:45:10.369Z,23.95
2024-03-13T02:46:14.264Z,24.25
2024-03-13T02:47:19.326Z,24.15
2024-03-13T02:48:23.347Z,23.60
2024-03-13T02:49:26.294Z,23.28
2024-03-13T02:50:30.234Z,24.07
2024-03-13T02:51:33.134Z,24.63
2024-03-13T02:52:37.018Z,22.37
2024-03-13T02:53:39.830Z,23.80
2024-03-13T02:54:43.829Z,24.10
2024-03-13T02:55:47.162Z,24.12
2024-03-13T02:56:50.903Z,23.78
2024-03-13T02:57:53.869Z,23.68
2024-03-13T02:58:58.039Z,24.73
2024-03-13T03:00:00.753Z,23.43
2024-03-13T03:01:04.780Z,24.53
2024-03-13T03:02:07.908Z,23.52
2024-03-13T03:03:13.557Z,25.82
2024-03-13T03:04:16.674Z,24.62
2024-03-13T03:05:20.796Z,23.98
2024-03-13T03:06:23.740Z,24.77
2024-03-13T03:07:27.812Z,24.53
2024-03-13T03:08:30.764Z,25.50
2024-03-13T03:09:34.516Z,23.77
2024-03-13T03:10:38.617Z,23.02
2024-03-13T03:11:44.707Z,22.47
2024-03-13T03:12:49.011Z,23.32
2024-03-13T03:13:52.987Z,25.72
2024-03-13T03:14:56.484Z,23.08
2024-03-13T03:16:01.186Z,23.25
2024-03-13T03:17:12.992Z,23.67
2024-03-13T03:18:19.412Z,23.33
2024-03-13T03:19:25.045Z,22.90
2024-03-13T03:20:27.948Z,24.32
2024-03-13T03:21:31.592Z,23.13
2024-03-13T03:22:34.374Z,24.95
2024-03-13T03:23:40.939Z,23.07
2024-03-13T03:24:45.006Z,24.72
2024-03-13T03:25:49.029Z,24.17
2024-03-13T03:26:52.961Z,25.23
2024-03-13T03:27:58.402Z,24.72
2024-03-13T03:29:11.206Z,25.40
2024-03-13T03:30:14.140Z,25.60
2024-03-13T03:31:18.093Z,25.63
2024-03-13T03:32:21.105Z,25.48
2024-03-13T03:33:25.542Z,24.48
2024-03-13T03:34:28.369Z,24.05
2024-03-13T03:35:33.496Z,25.60
2024-03-13T03:36:36.879Z,25.32
2024-03-13T03:37:40.681Z,24.18
2024-03-13T03:38:43.604Z,25.28
2024-03-13T03:39:47.196Z,26.80
2024-03-13T03:40:49.830Z,26.42
2024-03-13T03:41:54.531Z,26.67
2024-03-13T03:43:00.123Z,24.60
2024-03-13T03:44:12.622Z,26.80
2024-03-13T03:45:15.535Z,27.12
2024-03-13T03:46:19.974Z,26.85
2024-03-13T03:47:22.656Z,24.73
2024-03-13T03:48:26.744Z,25.95
2024-03-13T03:49:29.850Z,27.35
2024-03-13T03:50:33.638Z,27.45
2024-03-13T03:51:36.159Z,26.65
2024-03-13T03:52:40.557Z,25.03
2024-03-13T03:53:43.430Z,26.98
2024-03-13T03:54:46.968Z,27.92
2024-03-13T03:55:49.722Z,27.03
2024-03-13T03:56:53.326Z,25.60
2024-03-13T03:57:57.487Z,27.30
2024-03-13T03:59:02.816Z,28.05
2024-03-13T04:00:07.829Z,26.03
2024-03-13T04:01:11.058Z,26.05
2024-03-13T04:02:17.704Z,25.92
2024-03-13T04:03:20.801Z,26.65
2024-03-13T04:04:27.698Z,25.02
2024-03-13T04:05:31.193Z,26.15
2024-03-13T04:06:35.269Z,27.52
2024-03-13T04:07:41.420Z,26.13
2024-03-13T04:08:45.292Z,27.80
2024-03-13T04:09:49.363Z,27.88
2024-03-13T04:11:01.179Z,27.18
2024-03-13T04:12:05.333Z,27.03
2024-03-13T04:13:08.017Z,25.72
2024-03-13T04:14:11.277Z,24.82
2024-03-13T04:15:15.220Z,25.42
2024-03-13T04:16:18.188Z,26.33
2024-03-13T04:17:23.997Z,27.45
2024-03-13T04:18:26.993Z,27.43
2024-03-13T04:19:31.028Z,25.48
2024-03-13T04:20:33.746Z,25.03
2024-03-13T04:21:38.817Z,25.92
2024-03-13T04:22:43.488Z,26.67
2024-03-13T04:23:52.809Z,27.37
2024-03-13T04:24:55.588Z,25.93
2024-03-13T04:25:59.231Z,27.60
2024-03-13T04:27:01.832Z,25.42
2024-03-13T04:28:06.100Z,26.55
2024-03-13T04:29:09.065Z,26.53
2024-03-13T04:30:15.800Z,26.37
2024-03-13T04:31:18.686Z,26.62
2024-03-13T04:32:22.688Z,25.65
2024-03-13T04:33:25.426Z,26.13
2024-03-13T04:34:30.155Z,26.57
2024-03-13T04:35:33.173Z,27.00
2024-03-13T04:36:39.816Z,27.22
2024-03-13T04:37:45.058Z,26.65
2024-03-13T04:38:52.676Z,26.10
2024-03-13T04:39:58.787Z,27.08
2024-03-13T04:41:01.688Z,28.02
2024-03-13T04:42:06.533Z,26.08
2024-03-13T04:43:09.492Z,27.13
2024-03-13T04:44:14.048Z,28.38
2024-03-13T04:45:17.333Z,26.02
2024-03-13T04:46:20.607Z,26.43
2024-03-13T04:47:24.566Z,26.72
2024-03-13T04:48:28.655Z,26.88
2024-03-13T04:49:31.371Z,27.23
2024-03-13T04:50:35.503Z,27.47
2024-03-13T04:51:39.318Z,28.28
2024-03-13T04:52:43.404Z,26.75
2024-03-13T04:53:47.305Z,27.10
2024-03-13T04:54:53.160Z,27.83
2024-03-13T04:55:56.134Z,27.65
2024-03-13T04:57:01.410Z,27.60
2024-03-13T04:58:04.639Z,26.87
2024-03-13T04:59:08.428Z,28.18
2024-03-13T05:00:12.570Z,27.83
2024-03-13T05:01:20.375Z,28.27
2024-03-13T05:02:25.458Z,27.93
2024-03-13T05:03:29.344Z,29.82
2024-03-13T05:04:32.064Z,29.60
2024-03-13T05:05:36.668Z,28.48
2024-03-13T05:06:39.877Z,28.12
2024-03-13T05:07:45.074Z,27.75
2024-03-13T05:08:48.886Z,27.97
2024-03-13T05:09:53.756Z,27.12
2024-03-13T05:10:57.851Z,27.33
2024-03-13T05:12:01.063Z,29.00
2024-03-13T05:13:04.895Z,29.83
2024-03-13T05:14:08.054Z,29.12
2024-03-13T05:15:11.891Z,27.98
2024-03-13T05:16:14.917Z,27.15
2024-03-13T05:17:18.848Z,27.82
2024-03-13T05:18:21.517Z,28.65
2024-03-13T05:19:25.637Z,27.78
2024-03-13T05:20:29.550Z,28.23
2024-03-13T05:21:33.786Z,28.17
2024-03-13T05:22:36.816Z,28.65
2024-03-13T05:23:43.430Z,27.77
2024-03-13T05:24:49.654Z,28.53
2024-03-13T05:25:53.743Z,29.17
2024-03-13T05:26:56.730Z,27.90
2024-03-13T05:28:00.000Z,28.45
2024-03-13T05:29:04.262Z,27.72
2024-03-13T05:30:07.835Z,28.37
2024-03-13T05:31:12.444Z,28.28
2024-03-13T05:32:15.735Z,27.70
2024-03-13T05:33:18.660Z,28.00
2024-03-13T05:34:23.916Z,27.82
2024-03-13T05:35:27.568Z,28.02
2024-03-13T05:36:31.228Z,27.13
2024-03-13T05:37:36.827Z,28.77
2024-03-13T05:38:42.644Z,28.35
2024-03-13T05:39:45.652Z,29.77
2024-03-13T05:40:50.157Z,28.90
2024-03-13T05:41:53.133Z,27.68
2024-03-13T05:42:57.302Z,28.25
2024-03-13T05:44:01.056Z,27.73
2024-03-13T05:45:05.239Z,28.52
2024-03-13T05:46:08.993Z,27.73
2024-03-13T05:47:12.920Z,28.60
2024-03-13T05:48:16.181Z,27.78
2024-03-13T05:49:20.246Z,28.75
2024-03-13T05:50:23.085Z,29.58
2024-03-13T05:51:27.369Z,28.22
2024-03-13T05:52:30.350Z,28.42
2024-03-13T05:53:34.238Z,27.43
2024-03-13T05:54:36.762Z,27.98
2024-03-13T05:55:40.457Z,29.35
2024-03-13T05:56:44.770Z,32.25
2024-03-13T05:57:48.747Z,29.87
2024-03-13T05:58:51.263Z,29.05
2024-03-13T05:59:54.859Z,29.05
2024-03-13T06:00:57.564Z,31.00
2024-03-13T06:02:01.756Z,34.32
2024-03-13T06:03:04.991Z,32.27
2024-03-13T06:04:07.750Z,31.92
2024-03-13T06:05:16.356Z,31.58
2024-03-13T06:06:19.642Z,32.78
2024-03-13T06:07:23.797Z,31.00
2024-03-13T06:08:28.834Z,31.67
2024-03-13T06:09:32.737Z,28.92
2024-03-13T06:10:35.881Z,29.13
2024-03-13T06:11:39.788Z,28.88
2024-03-13T06:12:42.652Z,31.38
2024-03-13T06:13:46.543Z,32.77
2024-03-13T06:14:49.895Z,31.93
2024-03-13T06:15:53.723Z,31.80
2024-03-13T06:16:56.752Z,28.10
2024-03-13T06:18:00.496Z,29.95
2024-03-13T06:19:03.537Z,32.80
2024-03-13T06:20:12.907Z,32.02
2024-03-13T06:21:17.759Z,31.87
2024-03-13T06:22:20.861Z,32.73
2024-03-13T06:23:28.134Z,30.58
2024-03-13T06:24:32.126Z,28.78
2024-03-13T06:25:42.883Z,28.53
2024-03-13T06:26:50.480Z,29.02
2024-03-13T06:28:02.586Z,31.15
2024-03-13T06:29:23.760Z,30.52
2024-03-13T06:30:26.707Z,32.25
2024-03-13T06:31:29.430Z,41.52
2024-03-13T06:32:33.113Z,41.62
2024-03-13T06:33:36.035Z,38.73
2024-03-13T06:34:39.685Z,41.85
2024-03-13T06:35:43.317Z,42.15
2024-03-13T06:36:48.700Z,38.07
2024-03-13T06:37:52.944Z,39.27
2024-03-13T06:38:55.832Z,33.32
2024-03-13T06:40:01.517Z,29.87
2024-03-13T06:41:04.572Z,30.88
2024-03-13T06:42:23.190Z,31.02
2024-03-13T06:43:26.573Z,30.73
2024-03-13T06:44:29.505Z,28.12
2024-03-13T06:45:39.690Z,26.45
2024-03-13T06:46:43.201Z,28.18
2024-03-13T06:47:48.316Z,25.78
2024-03-13T06:48:51.459Z,26.02
2024-03-13T06:49:56.498Z,27.25
2024-03-13T06:50:59.238Z,28.37
2024-03-13T06:52:02.135Z,29.52
2024-03-13T06:53:06.162Z,27.33
2024-03-13T06:54:19.730Z,28.78
2024-03-13T06:55:24.036Z,28.55
2024-03-13T06:56:26.863Z,28.90
2024-03-13T06:57:31.565Z,31.85
2024-03-13T06:58:35.006Z,33.37
2024-03-13T06:59:40.809Z,33.87
2024-03-13T07:01:00.908Z,34.78
2024-03-13T07:02:05.527Z,33.43
2024-03-13T07:03:19.909Z,30.12
2024-03-13T07:04:27.454Z,28.03
2024-03-13T07:05:30.152Z,27.43
2024-03-13T07:06:35.452Z,27.55
2024-03-13T07:07:39.650Z,27.85
2024-03-13T07:08:44.360Z,25.62
2024-03-13T07:09:49.575Z,26.12
2024-03-13T07:10:53.628Z,25.55
2024-03-13T07:11:58.712Z,27.45
2024-03-13T07:13:04.766Z,24.37
2024-03-13T07:14:13.374Z,25.72
2024-03-13T07:15:17.366Z,24.28
2024-03-13T07:16:20.689Z,22.92
2024-03-13T07:17:24.769Z,24.07
2024-03-13T07:18:28.457Z,22.50
2024-03-13T07:19:33.041Z,24.55
2024-03-13T07:20:35.807Z,25.45
2024-03-13T07:21:42.534Z,27.42
2024-03-13T07:22:47.511Z,23.45
2024-03-13T07:24:14.915Z,23.88
2024-03-13T07:25:19.297Z,25.92
2024-03-13T07:26:22.405Z,25.18
2024-03-13T07:27:26.185Z,23.05
2024-03-13T07:28:29.504Z,22.87
2024-03-13T07:29:36.171Z,22.50
2024-03-13T07:30:40.269Z,23.60
2024-03-13T07:31:44.057Z,23.28
2024-03-13T07:32:47.399Z,25.02
2024-03-13T07:33:52.694Z,24.88
2024-03-13T07:34:56.204Z,23.18
2024-03-13T07:36:00.957Z,24.07
2024-03-13T07:37:08.228Z,25.47
2024-03-13T07:38:12.503Z,23.50
2024-03-13T07:39:16.323Z,23.47
2024-03-13T07:40:22.478Z,22.75
2024-03-13T07:41:25.204Z,23.37
2024-03-13T07:42:29.475Z,24.23
2024-03-13T07:43:32.805Z,23.10
2024-03-13T07:44:42.242Z,25.12
2024-03-13T07:45:45.704Z,24.55
2024-03-13T07:46:49.397Z,24.00
2024-03-13T07:47:52.864Z,24.58
2024-03-13T07:48:57.745Z,25.00
2024-03-13T07:50:01.277Z,26.48
2024-03-13T07:51:20.608Z,26.42
2024-03-13T07:52:24.210Z,28.35
2024-03-13T07:53:27.993Z,28.97
2024-03-13T07:54:31.464Z,27.27
2024-03-13T07:55:50.337Z,25.28
2024-03-13T07:59:00.670Z,24.53
2024-03-13T08:00:03.708Z,25.27
2024-03-13T08:01:08.747Z,25.45
2024-03-13T08:02:11.946Z,27.15
2024-03-13T08:03:16.023Z,35.43
2024-03-13T08:04:19.072Z,39.90
2024-03-13T08:05:23.528Z,33.77
2024-03-13T09:06:05.239Z,19.50
2024-03-13T09:07:11.898Z,18.50
2024-03-13T09:08:14.688Z,19.42
2024-03-13T09:09:24.541Z,19.52
2024-03-13T09:10:27.494Z,19.95
2024-03-13T09:11:31.296Z,18.23
2024-03-13T09:12:34.094Z,17.95
2024-03-13T09:13:38.085Z,19.35
2024-03-13T09:14:41.221Z,18.43
2024-03-13T09:15:46.567Z,17.25
2024-03-13T09:16:49.997Z,15.25
2024-03-13T09:17:53.960Z,15.22
2024-03-13T09:18:56.790Z,16.30
2024-03-13T09:20:00.683Z,16.38
2024-03-13T09:21:03.842Z,21.30
2024-03-13T09:22:08.778Z,22.73
2024-03-13T09:23:12.919Z,22.70
2024-03-13T09:24:16.693Z,22.35
2024-03-13T09:25:19.695Z,22.72
2024-03-13T09:26:23.444Z,23.07
2024-03-13T09:27:26.609Z,21.12
2024-03-13T09:28:30.651Z,21.73
2024-03-13T09:29:33.608Z,23.85
2024-03-13T09:30:38.139Z,23.18
2024-03-13T09:31:41.460Z,22.03
2024-03-13T09:32:45.425Z,20.75
2024-03-13T09:33:49.849Z,21.45
2024-03-13T09:34:53.975Z,21.17
2024-03-13T09:35:58.059Z,21.82
2024-03-13T09:37:06.484Z,21.55
2024-03-13T09:38:10.215Z,20.60
2024-03-13T09:39:14.725Z,20.42
2024-03-13T09:40:17.978Z,21.50
2024-03-13T09:41:21.701Z,22.23
2024-03-13T09:42:25.131Z,22.03
2024-03-13T09:43:28.699Z,21.23
2024-03-13T09:44:32.588Z,22.60
2024-03-13T09:45:35.712Z,22.33
2024-03-13T09:46:38.816Z,22.05
2024-03-13T09:47:42.626Z,20.98
2024-03-13T09:48:46.068Z,19.73
2024-03-13T09:49:49.749Z,18.22
2024-03-13T09:50:54.688Z,18.73
2024-03-13T09:51:58.751Z,19.10
2024-03-13T09:53:01.845Z,18.95
2024-03-13T09:54:06.148Z,19.50
2024-03-13T09:55:12.535Z,16.88
2024-03-13T09:56:16.342Z,17.82
2024-03-13T09:57:19.351Z,17.35
2024-03-13T09:58:23.523Z,17.72
2024-03-13T09:59:26.412Z,17.22
2024-03-13T10:00:32.795Z,16.65
2024-03-13T10:01:36.866Z,17.88
2024-03-13T10:02:41.791Z,19.42
2024-03-13T10:03:46.311Z,18.28
2024-03-13T10:04:49.562Z,19.10
2024-03-13T10:05:53.543Z,19.83
2024-03-13T10:06:58.390Z,19.93
2024-03-13T10:08:01.910Z,20.17
2024-03-13T10:09:04.970Z,21.52
2024-03-13T10:11:38.060Z,23.35
2024-03-13T10:12:42.844Z,22.02
2024-03-13T10:13:45.966Z,21.82
2024-03-13T10:14:51.752Z,21.57
2024-03-13T10:15:54.902Z,23.35
2024-03-13T10:17:00.665Z,22.38
2024-03-13T10:18:10.241Z,22.08
2024-03-13T10:19:14.925Z,22.18
2024-03-13T10:20:18.357Z,21.85
2024-03-13T10:21:22.661Z,21.93
2024-03-13T10:22:27.281Z,22.20
2024-03-13T10:23:31.074Z,22.88
2024-03-13T10:24:33.699Z,20.53
2024-03-13T10:25:37.729Z,18.83
2024-03-13T10:26:40.576Z,19.67
2024-03-13T10:27:44.930Z,18.93
2024-03-13T10:28:47.745Z,19.05
2024-03-13T10:29:54.215Z,19.37
2024-03-13T10:30:59.218Z,21.53
2024-03-13T10:32:06.081Z,22.47
2024-03-13T10:33:09.148Z,22.83
2024-03-13T10:34:13.145Z,23.23
2024-03-13T10:35:16.914Z,21.78
2024-03-13T10:36:20.646Z,22.45
2024-03-13T10:37:23.567Z,20.82
2024-03-13T10:38:34.962Z,20.77
2024-03-13T10:39:42.818Z,23.82
2024-03-13T10:40:47.444Z,24.47
2024-03-13T10:41:52.188Z,24.98
2024-03-13T10:42:55.785Z,24.68
2024-03-13T10:43:59.611Z,23.90
2024-03-13T10:45:06.189Z,24.28
2024-03-13T10:46:10.304Z,24.32
2024-03-13T10:47:13.997Z,24.65
2024-03-13T10:48:18.333Z,25.63
2024-03-13T10:49:22.391Z,25.18
2024-03-13T10:50:25.996Z,25.05
2024-03-13T10:51:29.971Z,24.75
2024-03-13T10:52:32.862Z,25.45
2024-03-13T10:53:36.673Z,24.43
2024-03-13T10:54:39.504Z,23.10
2024-03-13T10:55:44.010Z,23.32
2024-03-13T10:56:50.903Z,23.88
2024-03-13T10:57:55.160Z,24.45
2024-03-13T10:59:01.573Z,23.38
2024-03-13T11:00:12.405Z,23.13
2024-03-13T11:01:18.036Z,23.28
2024-03-13T11:02:22.279Z,22.33
2024-03-13T11:03:27.809Z,23.48
2024-03-13T11:04:31.971Z,23.50
2024-03-13T11:05:34.699Z,20.87
2024-03-13T11:06:39.816Z,21.45
2024-03-13T11:07:42.380Z,22.97
2024-03-13T11:08:46.863Z,24.25
2024-03-13T11:09:49.725Z,22.53
2024-03-13T11:11:06.318Z,23.12
2024-03-13T11:12:20.744Z,22.28
2024-03-13T11:13:26.265Z,23.48
2024-03-13T11:14:29.132Z,20.08
2024-03-13T11:15:34.183Z,19.62
2024-03-13T11:16:37.610Z,18.78
2024-03-13T11:17:42.268Z,21.75
2024-03-13T11:18:47.065Z,23.65
2024-03-13T11:19:51.448Z,25.60
2024-03-13T11:20:57.234Z,24.07
2024-03-13T11:22:04.695Z,21.10
2024-03-13T11:23:08.370Z,18.63
2024-03-13T11:24:12.404Z,17.40
2024-03-13T11:25:17.351Z,17.77
2024-03-13T11:26:21.530Z,16.67
2024-03-13T11:27:24.563Z,15.65
2024-03-13T11:28:28.851Z,16.72
2024-03-13T11:29:31.742Z,17.17
2024-03-13T11:30:36.610Z,17.53
2024-03-13T11:31:39.473Z,15.88
2024-03-13T11:32:43.584Z,14.75
2024-03-13T11:33:48.046Z,15.80
2024-03-13T11:34:52.111Z,16.07
2024-03-13T11:35:54.858Z,16.13
2024-03-13T11:36:59.665Z,16.67
2024-03-13T11:38:03.105Z,15.15
2024-03-13T11:39:07.171Z,14.40
2024-03-13T11:40:11.739Z,14.13
2024-03-13T11:41:17.859Z,14.63
2024-03-13T11:42:22.606Z,14.38
2024-03-13T11:43:26.601Z,15.77
2024-03-13T11:44:29.988Z,15.30
2024-03-13T11:45:34.239Z,14.93
2024-03-13T11:46:46.952Z,15.12
2024-03-13T11:47:52.217Z,15.50
2024-03-13T11:48:57.986Z,15.70
2024-03-13T11:50:03.481Z,15.73
2024-03-13T11:51:09.732Z,15.95
2024-03-13T11:52:13.202Z,14.78
2024-03-13T11:53:20.667Z,16.17
2024-03-13T11:54:29.865Z,14.87
2024-03-13T11:55:33.701Z,14.93
2024-03-13T11:56:36.396Z,15.17
2024-03-13T11:57:40.044Z,16.37
2024-03-13T11:58:42.933Z,16.77
2024-03-13T11:59:46.927Z,16.17
2024-03-13T12:00:49.714Z,15.97
2024-03-13T12:01:53.310Z,15.65
2024-03-13T12:02:56.433Z,16.58
2024-03-13T12:04:05.067Z,14.65
2024-03-13T12:05:08.313Z,15.57
2024-03-13T12:06:38.745Z,14.50
2024-03-13T12:07:45.210Z,13.67
2024-03-13T12:08:49.388Z,14.63
2024-03-13T12:09:52.002Z,14.18
2024-03-13T12:10:55.697Z,14.45
2024-03-13T12:11:58.852Z,13.42
2024-03-13T12:13:02.900Z,12.85
2024-03-13T12:14:06.709Z,13.00
2024-03-13T12:15:12.170Z,13.20
2024-03-13T12:16:15.707Z,13.25
2024-03-13T12:17:18.446Z,13.55
2024-03-13T12:18:22.682Z,14.33
2024-03-13T12:19:28.032Z,14.12
2024-03-13T12:20:36.486Z,14.35
2024-03-13T12:21:40.552Z,13.93
2024-03-13T12:22:45.629Z,13.90
2024-03-13T12:23:48.567Z,13.07
2024-03-13T12:24:52.445Z,13.72
2024-03-13T12:25:56.938Z,13.67
2024-03-13T12:27:00.664Z,14.30
2024-03-13T12:28:03.837Z,13.87
2024-03-13T12:29:07.531Z,14.07
2024-03-13T12:30:11.621Z,14.33
2024-03-13T12:31:15.460Z,13.70
2024-03-13T12:32:18.066Z,13.13
2024-03-13T12:33:21.634Z,12.48
2024-03-13T12:34:24.635Z,12.08
2024-03-13T12:35:30.417Z,12.35
2024-03-13T12:36:43.978Z,11.90
2024-03-13T12:37:51.192Z,12.73
2024-03-13T12:38:54.401Z,12.27
2024-03-13T12:39:59.734Z,12.07
2024-03-13T12:41:02.615Z,11.72
2024-03-13T12:42:07.846Z,12.48
2024-03-13T12:43:12.086Z,12.95
2024-03-13T12:44:16.489Z,13.43
2024-03-13T12:45:19.407Z,15.33
2024-03-13T12:46:22.570Z,16.15
2024-03-13T12:47:26.232Z,16.18
2024-03-13T12:48:29.416Z,18.85
2024-03-13T12:49:33.268Z,20.78
2024-03-13T12:50:36.282Z,20.50
2024-03-13T12:51:40.198Z,21.40
2024-03-13T12:52:43.276Z,21.53
2024-03-13T12:53:47.364Z,19.95
2024-03-13T12:54:50.169Z,20.80
2024-03-13T12:55:54.116Z,19.62
2024-03-13T12:56:58.215Z,18.32
2024-03-13T12:58:06.803Z,19.05
2024-03-13T12:59:13.000Z,19.17
2024-03-13T13:00:17.571Z,18.40
2024-03-13T13:01:21.531Z,18.08
2024-03-13T13:02:24.575Z,18.07
2024-03-13T13:03:27.472Z,19.37
2024-03-13T13:04:32.130Z,18.12
2024-03-13T13:05:36.776Z,18.35
2024-03-13T13:06:39.669Z,17.45
2024-03-13T13:07:53.249Z,17.63
2024-03-13T13:08:56.059Z,18.50
2024-03-13T13:10:00.283Z,17.45
2024-03-13T13:11:06.111Z,18.05
2024-03-13T13:12:14.051Z,18.15
2024-03-13T13:13:17.001Z,17.30
2024-03-13T13:14:21.342Z,18.33
2024-03-13T13:15:24.589Z,18.55
2024-03-13T13:16:29.173Z,18.33
2024-03-13T13:17:32.112Z,17.68
2024-03-13T13:18:35.962Z,17.68
2024-03-13T13:19:38.864Z,17.88
2024-03-13T13:20:42.646Z,18.00
2024-03-13T13:21:46.908Z,18.27
2024-03-13T13:22:51.483Z,19.45
2024-03-13T13:23:54.120Z,17.83
2024-03-13T13:24:57.033Z,19.02
2024-03-13T13:26:00.981Z,18.58
2024-03-13T13:27:04.179Z,19.17
2024-03-13T13:28:08.057Z,20.68
2024-03-13T13:29:10.838Z,19.95
2024-03-13T13:30:15.576Z,19.95
2024-03-13T13:31:18.268Z,20.35
2024-03-13T13:32:20.845Z,21.18
2024-03-13T13:33:27.186Z,21.30
2024-03-13T13:34:30.052Z,22.23
2024-03-13T13:35:36.096Z,22.27
2024-03-13T13:36:39.067Z,24.55
2024-03-13T13:37:43.219Z,24.65
2024-03-13T13:38:46.383Z,25.05
2024-03-13T13:39:50.003Z,26.42
2024-03-13T13:40:52.910Z,24.68
2024-03-13T13:41:56.880Z,25.37
2024-03-13T13:43:00.113Z,25.32
2024-03-13T13:44:05.008Z,24.33
2024-03-13T13:45:08.132Z,23.22
2024-03-13T13:46:12.059Z,20.47
2024-03-13T13:47:15.037Z,18.83
2024-03-13T13:48:21.873Z,18.25
2024-03-13T13:49:24.949Z,19.07
2024-03-13T13:50:28.590Z,19.42
2024-03-13T13:51:31.573Z,19.50
2024-03-13T13:52:34.424Z,20.83
2024-03-13T13:53:38.517Z,20.58
2024-03-13T13:54:41.486Z,21.45
2024-03-13T13:55:45.731Z,20.87
2024-03-13T13:56:48.404Z,21.45
2024-03-13T13:57:53.769Z,21.98
2024-03-13T13:58:57.081Z,21.93
2024-03-13T14:00:00.800Z,20.65
2024-03-13T14:01:04.760Z,21.00
2024-03-13T14:02:08.639Z,20.82
2024-03-13T14:03:11.585Z,20.65
2024-03-13T14:04:15.626Z,21.42
2024-03-13T14:05:18.812Z,22.27
2024-03-13T14:06:25.334Z,21.73
2024-03-13T14:07:28.351Z,21.32
2024-03-13T14:08:32.657Z,20.65
2024-03-13T14:09:35.517Z,20.13
2024-03-13T14:10:38.502Z,21.40
2024-03-13T14:11:42.238Z,20.83
2024-03-13T14:12:45.180Z,19.60
2024-03-13T14:13:50.308Z,19.98
2024-03-13T14:14:54.852Z,19.57
2024-03-13T14:15:58.670Z,20.77
2024-03-13T14:17:03.296Z,20.63
2024-03-13T14:18:11.294Z,20.50
2024-03-13T14:19:14.412Z,20.90
2024-03-13T14:20:21.603Z,20.78
2024-03-13T14:21:25.512Z,20.72
2024-03-13T14:22:29.218Z,20.82
2024-03-13T14:23:32.213Z,20.60
2024-03-13T14:24:35.998Z,20.25
2024-03-13T14:25:39.007Z,21.43
2024-03-13T14:26:43.024Z,23.03
2024-03-13T14:27:45.675Z,22.68
2024-03-13T14:28:52.966Z,22.87
2024-03-13T14:29:56.673Z,22.75
2024-03-13T14:31:00.335Z,23.58
2024-03-13T14:32:08.797Z,23.68
2024-03-13T14:33:12.751Z,22.87
2024-03-13T14:34:15.869Z,23.43
2024-03-13T14:35:21.209Z,22.77
2024-03-13T14:36:26.135Z,23.72
2024-03-13T14:37:30.652Z,23.73
2024-03-13T14:38:33.625Z,23.73
2024-03-13T14:39:37.406Z,23.77
2024-03-13T14:40:40.264Z,24.00
2024-03-13T14:41:46.597Z,23.13
2024-03-13T14:42:49.700Z,24.43
2024-03-13T14:43:53.563Z,22.60
2024-03-13T14:44:56.753Z,21.48
2024-03-13T14:46:01.378Z,22.92
2024-03-13T14:47:04.544Z,22.38
2024-03-13T14:48:08.742Z,20.65
2024-03-13T14:49:14.574Z,19.63
2024-03-13T14:50:31.236Z,19.23
2024-03-13T14:51:37.642Z,20.00
2024-03-13T14:52:47.549Z,20.05
2024-03-13T14:53:58.953Z,19.83
2024-03-13T14:55:03.211Z,20.55
2024-03-13T14:56:07.978Z,20.48
2024-03-13T14:57:12.614Z,20.45
2024-03-13T14:58:15.528Z,20.72
2024-03-13T14:59:19.778Z,20.72